Time;durP1;ratioP1;P1;durP2;ratioP2;P2;SDS_P1;SDS_P2;PMS_P1;PMS_P2;Temp;Humidity;BMP_temperature;BMP_pressure;BME280_temperature;BME280_humidity;BME280_pressure;Samples;Min_cycle;Max_cycle;Signal;HPM_P1;HPM_P2
2022/04/18 00:01:07;;;;;;;;;;;5.10;99.90;;;;;;5115860;28;19914;-46
2022/04/18 00:03:32;;;;;;;;;;;5.10;99.90;;;;;;5115860;28;19916;-44
2022/04/18 00:05:58;;;;;;;;;;;5.10;99.90;;;;;;5115817;28;19908;-43
2022/04/18 00:08:23;;;;;;;;;;;5.00;99.90;;;;;;5115772;28;19915;-44
2022/04/18 00:10:49;;;;;;;;;;;5.00;99.90;;;;;;5097430;28;20003;-46
2022/04/18 00:13:14;;;;;;;;;;;5.00;99.90;;;;;;5115668;28;19912;-44
2022/04/18 00:15:40;;;;;;;;;;;5.00;99.90;;;;;;5115985;28;20373;-48
2022/04/18 00:18:05;;;;;;;;;;;5.00;99.90;;;;;;5115557;28;19915;-45
2022/04/18 00:20:31;;;;;;;;;;;5.00;99.90;;;;;;5115535;28;19908;-46
2022/04/18 00:22:56;;;;;;;;;;;4.90;99.90;;;;;;5115442;28;20000;-46
2022/04/18 00:25:22;;;;;;;;;;;4.90;99.90;;;;;;5115385;28;19990;-47
2022/04/18 00:27:49;;;;;;;;;;;4.90;99.90;;;;;;5115156;28;19908;-47
2022/04/18 00:30:14;;;;;;;;;;;4.90;99.90;;;;;;5114876;28;20357;-45
2022/04/18 00:32:40;;;;;;;;;;;4.90;99.90;;;;;;5114979;28;19962;-45
2022/04/18 00:35:06;;;;;;;;;;;4.80;99.90;;;;;;5115481;28;19914;-48
2022/04/18 00:37:32;;;;;;;;;;;4.80;99.90;;;;;;5114486;28;19930;-47
2022/04/18 00:39:57;;;;;;;;;;;4.80;99.90;;;;;;5096532;28;19933;-46
2022/04/18 00:42:23;;;;;;;;;;;4.80;99.90;;;;;;5114789;28;19908;-47
2022/04/18 00:44:48;;;;;;;;;;;4.80;99.90;;;;;;5114689;28;20282;-44
2022/04/18 00:47:14;;;;;;;;;;;4.80;99.90;;;;;;5114612;28;19912;-44
2022/04/18 00:49:39;;;;;;;;;;;4.80;99.90;;;;;;5114971;28;20427;-47
2022/04/18 00:52:05;;;;;;;;;;;4.80;99.90;;;;;;5114807;28;20383;-46
2022/04/18 00:54:32;;;;;;;;;;;4.80;99.90;;;;;;5096617;28;19907;-44
2022/04/18 00:56:58;;;;;;;;;;;4.90;99.90;;;;;;5114727;28;19996;-44
2022/04/18 00:59:23;;;;;;;;;;;4.90;99.90;;;;;;5114659;28;19961;-46
2022/04/18 01:01:49;;;;;;;;;;;4.90;99.90;;;;;;5114423;28;19908;-43
2022/04/18 01:04:14;;;;;;;;;;;4.90;99.90;;;;;;5114052;28;20002;-47
2022/04/18 01:06:40;;;;;;;;;;;4.90;99.90;;;;;;5114058;28;19955;-46
2022/04/18 01:09:06;;;;;;;;;;;4.90;99.90;;;;;;5114379;28;19908;-44
2022/04/18 01:11:32;;;;;;;;;;;4.80;99.90;;;;;;5114372;28;19923;-45
2022/04/18 01:13:59;;;;;;;;;;;4.80;99.90;;;;;;5114651;28;19915;-45
2022/04/18 01:16:24;;;;;;;;;;;4.80;99.90;;;;;;5114286;28;19912;-44
2022/04/18 01:18:51;;;;;;;;;;;4.70;99.90;;;;;;5114299;28;19908;-45
2022/04/18 01:21:17;;;;;;;;;;;4.60;99.90;;;;;;5114379;28;20401;-44
2022/04/18 01:23:43;;;;;;;;;;;4.60;99.90;;;;;;5114450;28;19908;-46
2022/04/18 01:28:59;;;;;;;;;;;4.50;99.90;;;;;;5113981;28;19915;-47
2022/04/18 01:31:28;;;;;;;;;;;4.40;99.90;;;;;;5114224;28;19919;-44
2022/04/18 01:33:53;;;;;;;;;;;4.40;99.90;;;;;;5114281;28;19914;-48
2022/04/18 01:36:19;;;;;;;;;;;4.40;99.90;;;;;;5114209;28;19908;-45
2022/04/18 01:38:44;;;;;;;;;;;4.30;99.90;;;;;;5114360;28;19912;-45
2022/04/18 01:41:10;;;;;;;;;;;4.20;99.90;;;;;;5113808;28;20243;-47
2022/04/18 01:43:35;;;;;;;;;;;4.20;99.90;;;;;;5113990;28;19915;-45
2022/04/18 01:46:01;;;;;;;;;;;4.20;99.90;;;;;;5113960;28;19949;-46
2022/04/18 01:48:26;;;;;;;;;;;4.20;99.90;;;;;;5116790;28;20359;-46
2022/04/18 01:50:52;;;;;;;;;;;4.20;99.90;;;;;;5117907;28;19915;-44
2022/04/18 01:53:18;;;;;;;;;;;4.10;99.90;;;;;;5118421;28;19907;-45
2022/04/18 01:55:43;;;;;;;;;;;4.10;99.90;;;;;;5118368;28;19961;-44
2022/04/18 01:58:09;;;;;;;;;;;4.10;99.90;;;;;;5118495;28;20346;-45
2022/04/18 02:00:35;;;;;;;;;;;4.00;99.90;;;;;;5118094;28;19912;-46
2022/04/18 02:03:00;;;;;;;;;;;4.00;99.90;;;;;;5118079;28;20342;-45
2022/04/18 02:05:26;;;;;;;;;;;4.00;99.90;;;;;;5118362;28;19940;-44
2022/04/18 02:07:52;;;;;;;;;;;4.00;99.90;;;;;;5118113;28;19942;-46
2022/04/18 02:10:17;;;;;;;;;;;4.00;99.90;;;;;;5117987;28;19915;-46
2022/04/18 02:12:43;;;;;;;;;;;3.90;99.90;;;;;;5117525;28;20274;-44
2022/04/18 02:15:08;;;;;;;;;;;3.90;99.90;;;;;;5117526;28;19919;-46
2022/04/18 02:17:34;;;;;;;;;;;3.90;99.90;;;;;;5117561;28;19908;-44
2022/04/18 02:19:59;;;;;;;;;;;3.90;99.90;;;;;;5117559;28;19908;-47
2022/04/18 02:22:25;;;;;;;;;;;3.90;99.90;;;;;;5117578;28;19919;-46
2022/04/18 02:24:51;;;;;;;;;;;3.80;99.90;;;;;;5117475;28;19908;-46
2022/04/18 02:27:16;;;;;;;;;;;3.80;99.90;;;;;;5117974;28;19951;-47
2022/04/18 02:29:43;;;;;;;;;;;3.70;99.90;;;;;;5117421;28;19950;-50
2022/04/18 02:34:52;;;;;;;;;;;3.70;99.90;;;;;;5117753;28;19914;-47
2022/04/18 02:37:18;;;;;;;;;;;3.70;99.90;;;;;;5117863;28;19912;-45
2022/04/18 02:39:43;;;;;;;;;;;3.70;99.90;;;;;;5117530;28;19915;-46
2022/04/18 02:42:09;;;;;;;;;;;3.60;99.90;;;;;;5117296;28;19907;-44
2022/04/18 02:44:34;;;;;;;;;;;3.50;99.90;;;;;;5117417;28;19912;-45
2022/04/18 02:47:00;;;;;;;;;;;3.50;99.90;;;;;;5117099;28;20007;-44
2022/04/18 02:49:25;;;;;;;;;;;3.50;99.90;;;;;;5116975;28;19923;-44
2022/04/18 02:51:51;;;;;;;;;;;3.40;99.90;;;;;;5117159;28;20010;-44
2022/04/18 02:54:16;;;;;;;;;;;3.40;99.90;;;;;;5117009;28;19933;-44
2022/04/18 02:56:42;;;;;;;;;;;3.40;99.90;;;;;;5117113;28;19950;-45
2022/04/18 02:59:07;;;;;;;;;;;3.40;99.90;;;;;;5116332;28;19941;-45
2022/04/18 03:01:33;;;;;;;;;;;3.40;99.90;;;;;;5116773;28;19908;-47
2022/04/18 03:03:58;;;;;;;;;;;3.40;99.90;;;;;;5098850;28;19908;-46
2022/04/18 03:06:24;;;;;;;;;;;3.40;99.90;;;;;;5098712;28;20016;-46
2022/04/18 03:08:49;;;;;;;;;;;3.40;99.90;;;;;;5117014;28;19914;-45
2022/04/18 03:11:15;;;;;;;;;;;3.30;99.90;;;;;;5116766;28;20239;-45
2022/04/18 03:13:44;;;;;;;;;;;3.40;99.90;;;;;;5116697;28;19999;-44
2022/04/18 03:16:10;;;;;;;;;;;3.30;99.90;;;;;;5117164;28;19916;-47
2022/04/18 03:18:36;;;;;;;;;;;3.30;99.90;;;;;;5116871;28;19931;-46
2022/04/18 03:21:03;;;;;;;;;;;3.30;99.90;;;;;;5116644;28;20370;-46
2022/04/18 03:23:28;;;;;;;;;;;3.30;99.90;;;;;;5116643;28;19914;-45
2022/04/18 03:25:54;;;;;;;;;;;3.30;99.90;;;;;;5116351;28;19907;-44
2022/04/18 03:28:20;;;;;;;;;;;3.30;99.90;;;;;;5116515;28;19914;-43
2022/04/18 03:30:45;;;;;;;;;;;3.20;99.90;;;;;;5116124;28;19942;-46
2022/04/18 03:33:11;;;;;;;;;;;3.20;99.90;;;;;;5115903;28;19916;-46
2022/04/18 03:35:36;;;;;;;;;;;3.20;99.90;;;;;;5115996;28;19908;-47
2022/04/18 03:40:46;;;;;;;;;;;3.20;99.90;;;;;;5116390;28;19914;-43
2022/04/18 03:43:11;;;;;;;;;;;3.20;99.90;;;;;;5116097;28;19908;-47
2022/04/18 03:45:37;;;;;;;;;;;3.20;99.90;;;;;;5115984;28;19908;-44
2022/04/18 03:48:03;;;;;;;;;;;3.20;99.90;;;;;;5115895;28;19988;-44
2022/04/18 03:50:29;;;;;;;;;;;3.10;99.90;;;;;;5115917;28;20327;-49
2022/04/18 03:52:54;;;;;;;;;;;3.10;99.90;;;;;;5115929;28;20020;-44
2022/04/18 03:55:20;;;;;;;;;;;3.20;99.90;;;;;;5115704;28;19961;-46
2022/04/18 03:57:46;;;;;;;;;;;3.20;99.90;;;;;;5116238;28;19908;-44
2022/04/18 04:00:12;;;;;;;;;;;3.10;99.90;;;;;;5115822;28;19908;-45
2022/04/18 04:02:38;;;;;;;;;;;3.10;99.90;;;;;;5115734;28;19969;-47
2022/04/18 04:05:04;;;;;;;;;;;3.10;99.90;;;;;;5115716;28;19908;-44
2022/04/18 04:07:29;;;;;;;;;;;3.00;99.90;;;;;;5115764;28;20247;-44
2022/04/18 04:09:55;;;;;;;;;;;2.90;99.90;;;;;;5115485;28;19912;-43
2022/04/18 04:12:24;;;;;;;;;;;2.90;99.90;;;;;;5114505;28;19949;-44
2022/04/18 04:14:51;;;;;;;;;;;3.00;99.90;;;;;;5115440;28;20306;-44
2022/04/18 04:17:16;;;;;;;;;;;3.00;99.90;;;;;;5115501;28;20348;-46
2022/04/18 04:19:42;;;;;;;;;;;3.00;99.90;;;;;;5115364;28;19915;-45
2022/04/18 04:22:08;;;;;;;;;;;2.90;99.90;;;;;;5115157;28;19965;-44
2022/04/18 04:24:33;;;;;;;;;;;2.90;99.90;;;;;;5115453;28;19907;-44
2022/04/18 04:26:59;;;;;;;;;;;2.90;99.90;;;;;;5115010;28;19912;-43
2022/04/18 04:29:24;;;;;;;;;;;2.90;99.90;;;;;;5115012;28;19912;-43
2022/04/18 04:31:50;;;;;;;;;;;2.80;99.90;;;;;;5115162;28;19923;-46
2022/04/18 04:34:16;;;;;;;;;;;2.90;99.90;;;;;;5115157;28;19908;-43
2022/04/18 04:36:41;;;;;;;;;;;2.90;99.90;;;;;;5115100;28;19907;-46
2022/04/18 04:39:07;;;;;;;;;;;2.90;99.90;;;;;;5096779;28;19908;-45
2022/04/18 04:41:33;;;;;;;;;;;2.90;99.90;;;;;;5114768;28;19935;-47
2022/04/18 04:43:58;;;;;;;;;;;2.90;99.90;;;;;;5114737;28;20270;-48
2022/04/18 04:46:24;;;;;;;;;;;2.90;99.90;;;;;;5096850;28;20196;-45
2022/04/18 04:48:49;;;;;;;;;;;2.90;99.90;;;;;;5115304;28;19915;-44
2022/04/18 04:51:15;;;;;;;;;;;3.00;99.90;;;;;;5114727;28;19908;-46
2022/04/18 04:53:41;;;;;;;;;;;3.10;99.90;;;;;;5114551;28;19915;-46
2022/04/18 04:56:06;;;;;;;;;;;3.20;99.90;;;;;;5115020;28;19907;-46
2022/04/18 04:58:31;;;;;;;;;;;3.40;99.90;;;;;;5114532;28;19947;-45
2022/04/18 05:00:57;;;;;;;;;;;3.50;99.90;;;;;;5114448;28;20006;-46
2022/04/18 05:03:24;;;;;;;;;;;3.60;99.90;;;;;;5096337;28;20247;-45
2022/04/18 05:05:49;;;;;;;;;;;3.80;99.90;;;;;;5114514;28;19912;-44
2022/04/18 05:08:15;;;;;;;;;;;3.90;99.90;;;;;;5114708;28;19919;-46
2022/04/18 05:10:40;;;;;;;;;;;4.00;99.90;;;;;;5114589;28;19916;-47
2022/04/18 05:13:06;;;;;;;;;;;4.10;99.90;;;;;;5114306;28;19922;-44
2022/04/18 05:15:32;;;;;;;;;;;4.20;99.90;;;;;;5114534;28;20005;-44
2022/04/18 05:17:58;;;;;;;;;;;4.20;99.90;;;;;;5114236;28;19915;-45
2022/04/18 05:20:23;;;;;;;;;;;4.20;99.90;;;;;;5114244;28;20278;-47
2022/04/18 05:22:50;;;;;;;;;;;4.30;99.90;;;;;;5113985;28;19908;-46
2022/04/18 05:25:15;;;;;;;;;;;4.40;99.90;;;;;;5114139;28;19919;-45
2022/04/18 05:27:41;;;;;;;;;;;4.50;99.90;;;;;;5114025;28;19908;-44
2022/04/18 05:30:06;;;;;;;;;;;4.60;99.90;;;;;;5113973;28;19961;-48
2022/04/18 05:32:32;;;;;;;;;;;4.60;99.90;;;;;;5095964;28;19916;-44
2022/04/18 05:34:58;;;;;;;;;;;4.60;99.90;;;;;;5095266;28;20163;-46
2022/04/18 05:37:24;;;;;;;;;;;4.70;99.90;;;;;;5095779;28;19912;-44
2022/04/18 05:39:49;;;;;;;;;;;4.70;99.90;;;;;;5114458;28;20003;-45
2022/04/18 05:42:15;;;;;;;;;;;4.80;99.90;;;;;;5114379;28;20278;-45
2022/04/18 05:44:40;;;;;;;;;;;4.90;99.90;;;;;;5114295;28;20269;-46
2022/04/18 05:47:06;;;;;;;;;;;5.00;99.90;;;;;;5113948;28;19908;-46
2022/04/18 05:49:31;;;;;;;;;;;5.00;99.90;;;;;;5113937;28;19958;-46
2022/04/18 05:51:57;;;;;;;;;;;5.00;99.90;;;;;;5113766;28;19941;-46
2022/04/18 05:54:23;;;;;;;;;;;5.00;99.90;;;;;;5114356;28;20215;-46
2022/04/18 05:56:48;;;;;;;;;;;5.10;99.90;;;;;;5113770;28;19907;-46
2022/04/18 05:59:14;;;;;;;;;;;5.20;99.90;;;;;;5095846;28;19908;-44
2022/04/18 06:01:39;;;;;;;;;;;5.20;99.90;;;;;;5113626;28;19915;-46
2022/04/18 06:04:04;;;;;;;;;;;5.20;99.90;;;;;;5113835;28;19957;-45
2022/04/18 06:06:30;;;;;;;;;;;5.30;99.90;;;;;;5113611;28;19998;-44
2022/04/18 06:08:55;;;;;;;;;;;5.40;99.90;;;;;;5113916;28;19995;-44
2022/04/18 06:11:21;;;;;;;;;;;5.60;99.90;;;;;;5113830;28;19927;-46
2022/04/18 06:13:47;;;;;;;;;;;5.60;99.90;;;;;;5113621;28;19915;-48
2022/04/18 06:16:12;;;;;;;;;;;5.50;99.90;;;;;;5113875;28;19977;-45
2022/04/18 06:18:38;;;;;;;;;;;5.60;99.90;;;;;;5113473;28;20368;-45
2022/04/18 06:21:04;;;;;;;;;;;5.70;99.90;;;;;;5113607;28;19907;-46
2022/04/18 06:23:29;;;;;;;;;;;5.70;99.90;;;;;;5095422;28;20362;-44
2022/04/18 06:25:55;;;;;;;;;;;5.70;99.90;;;;;;5113761;28;19912;-46
2022/04/18 06:28:20;;;;;;;;;;;5.80;99.90;;;;;;5113433;28;19912;-45
2022/04/18 06:30:46;;;;;;;;;;;5.80;99.90;;;;;;5113582;28;19920;-45
2022/04/18 06:33:12;;;;;;;;;;;5.90;99.90;;;;;;5113637;28;19949;-44
2022/04/18 06:35:38;;;;;;;;;;;6.00;99.90;;;;;;5115856;28;19912;-45
2022/04/18 06:38:04;;;;;;;;;;;6.10;99.90;;;;;;5117475;28;19908;-46
2022/04/18 06:40:30;;;;;;;;;;;6.30;99.90;;;;;;5099581;28;19963;-46
2022/04/18 06:42:55;;;;;;;;;;;6.40;99.90;;;;;;5099096;28;19908;-45
2022/04/18 06:45:20;;;;;;;;;;;6.50;99.90;;;;;;5099107;28;19912;-44
2022/04/18 06:47:46;;;;;;;;;;;6.60;99.90;;;;;;5117160;28;19915;-44
2022/04/18 06:50:12;;;;;;;;;;;6.70;99.90;;;;;;5117243;28;19954;-47
2022/04/18 06:52:42;;;;;;;;;;;7.00;99.90;;;;;;5117149;28;19916;-47
2022/04/18 06:55:08;;;;;;;;;;;7.10;99.90;;;;;;5098826;28;19912;-43
2022/04/18 06:57:34;;;;;;;;;;;7.20;99.90;;;;;;5116711;28;19914;-47
2022/04/18 06:59:59;;;;;;;;;;;7.30;99.90;;;;;;5116799;28;19908;-44
2022/04/18 07:02:25;;;;;;;;;;;7.40;99.90;;;;;;5098881;28;19961;-46
2022/04/18 07:04:51;;;;;;;;;;;7.40;99.90;;;;;;5098525;28;19914;-49
2022/04/18 07:07:16;;;;;;;;;;;7.50;99.90;;;;;;5116626;28;20042;-46
2022/04/18 07:09:42;;;;;;;;;;;7.50;99.90;;;;;;5116528;28;19908;-46
2022/04/18 07:12:08;;;;;;;;;;;7.60;99.90;;;;;;5116462;28;20018;-45
2022/04/18 07:14:35;;;;;;;;;;;7.80;99.90;;;;;;5116459;28;19931;-45
2022/04/18 07:17:00;;;;;;;;;;;7.80;99.90;;;;;;5117060;28;19907;-46
2022/04/18 07:19:28;;;;;;;;;;;7.80;99.90;;;;;;5116467;28;19908;-44
2022/04/18 07:21:53;;;;;;;;;;;8.00;99.90;;;;;;5116460;28;19996;-45
2022/04/18 07:24:19;;;;;;;;;;;8.10;99.90;;;;;;5098264;28;20319;-45
2022/04/18 07:26:45;;;;;;;;;;;8.00;99.90;;;;;;5116491;28;19911;-46
2022/04/18 07:29:10;;;;;;;;;;;8.10;99.80;;;;;;5116402;28;19908;-44
2022/04/18 07:31:36;;;;;;;;;;;8.20;99.20;;;;;;5116260;28;19967;-49
2022/04/18 07:34:01;;;;;;;;;;;8.20;98.70;;;;;;5097738;28;19961;-46
2022/04/18 07:36:27;;;;;;;;;;;8.20;98.80;;;;;;5116273;28;19961;-47
2022/04/18 07:38:52;;;;;;;;;;;8.20;98.70;;;;;;5116321;28;19912;-47
2022/04/18 07:41:22;;;;;;;;;;;8.40;98.50;;;;;;5116174;28;20019;-48
2022/04/18 07:43:48;;;;;;;;;;;8.30;99.20;;;;;;5131606;27;19962;-47
2022/04/18 07:46:17;;;;;;;;;;;8.40;98.60;;;;;;5115700;28;19907;-47
2022/04/18 07:48:47;;;;;;;;;;;8.70;98.70;;;;;;5098426;28;19976;-45
2022/04/18 07:53:57;;;;;;;;;;;9.00;98.10;;;;;;5115993;28;19957;-47
2022/04/18 07:56:22;;;;;;;;;;;9.10;96.80;;;;;;5115489;28;20281;-46
2022/04/18 07:58:49;;;;;;;;;;;8.90;96.60;;;;;;5115579;28;20300;-45
2022/04/18 08:01:14;;;;;;;;;;;8.90;96.50;;;;;;5115502;28;20381;-44
2022/04/18 08:03:40;;;;;;;;;;;9.00;96.10;;;;;;5115369;28;20015;-45
2022/04/18 08:06:05;;;;;;;;;;;9.10;96.00;;;;;;5115406;28;19907;-45
2022/04/18 08:08:31;;;;;;;;;;;9.20;96.10;;;;;;5115416;28;20311;-46
2022/04/18 08:10:57;;;;;;;;;;;9.40;95.70;;;;;;5115600;28;19915;-44
2022/04/18 08:13:23;;;;;;;;;;;9.50;95.40;;;;;;5115055;28;20312;-44
2022/04/18 08:15:49;;;;;;;;;;;9.60;96.40;;;;;;5115494;28;19916;-46
2022/04/18 08:18:14;;;;;;;;;;;9.60;96.50;;;;;;5115445;28;20389;-47
2022/04/18 08:20:40;;;;;;;;;;;9.60;96.20;;;;;;5115560;28;20250;-47
2022/04/18 08:23:06;;;;;;;;;;;9.80;96.50;;;;;;5115020;28;20281;-48
2022/04/18 08:25:31;;;;;;;;;;;9.90;96.20;;;;;;5115359;28;19908;-44
2022/04/18 08:27:57;;;;;;;;;;;9.90;95.10;;;;;;5115163;28;19998;-45
2022/04/18 08:30:22;;;;;;;;;;;10.00;94.30;;;;;;5114956;28;20336;-47
2022/04/18 08:32:48;;;;;;;;;;;10.20;95.00;;;;;;5115120;28;19916;-46
2022/04/18 08:35:13;;;;;;;;;;;10.30;93.50;;;;;;5115057;28;19998;-44
2022/04/18 08:37:39;;;;;;;;;;;9.90;92.20;;;;;;5114511;28;20047;-44
2022/04/18 08:40:05;;;;;;;;;;;10.10;92.00;;;;;;5096752;28;19934;-46
2022/04/18 08:42:36;;;;;;;;;;;10.30;91.80;;;;;;5095970;28;19915;-46
2022/04/18 08:45:04;;;;;;;;;;;10.30;90.40;;;;;;5114571;28;20274;-47
2022/04/18 08:52:58;;;;;;;;;;;10.60;89.10;;;;;;5114212;28;19964;-51
2022/04/18 08:55:23;;;;;;;;;;;10.70;89.90;;;;;;5114238;28;20299;-45
2022/04/18 08:57:49;;;;;;;;;;;10.70;90.80;;;;;;5095579;28;19933;-45
2022/04/18 09:00:15;;;;;;;;;;;10.80;89.70;;;;;;5114233;28;19918;-46
2022/04/18 09:02:40;;;;;;;;;;;10.70;90.00;;;;;;5114097;28;20242;-46
2022/04/18 09:05:12;;;;;;;;;;;10.70;90.60;;;;;;5114086;28;20053;-46
2022/04/18 09:07:55;;;;;;;;;;;10.80;90.60;;;;;;5114302;28;19908;-46
2022/04/18 09:10:24;;;;;;;;;;;10.90;90.20;;;;;;5114645;28;19912;-45
2022/04/18 09:12:51;;;;;;;;;;;10.50;90.10;;;;;;5114277;28;19916;-47
2022/04/18 09:15:30;;;;;;;;;;;10.70;89.90;;;;;;5114030;28;19953;-45
2022/04/18 09:18:05;;;;;;;;;;;11.00;90.40;;;;;;5114368;28;19907;-47
2022/04/18 09:20:39;;;;;;;;;;;11.30;89.30;;;;;;5114461;28;19998;-47
2022/04/18 09:23:05;;;;;;;;;;;11.30;88.90;;;;;;5114048;28;19919;-47
2022/04/18 09:25:36;;;;;;;;;;;11.00;87.50;;;;;;5113907;28;19908;-47
2022/04/18 09:28:02;;;;;;;;;;;10.90;86.40;;;;;;5113993;28;19908;-48
2022/04/18 09:30:31;;;;;;;;;;;10.40;86.60;;;;;;5114014;28;19920;-46
2022/04/18 09:33:00;;;;;;;;;;;10.40;86.60;;;;;;5114285;28;19974;-47
2022/04/18 09:35:26;;;;;;;;;;;10.60;86.70;;;;;;5114064;28;19911;-45
2022/04/18 09:37:53;;;;;;;;;;;10.80;86.30;;;;;;5113746;28;19908;-43
2022/04/18 09:40:22;;;;;;;;;;;11.10;85.50;;;;;;5113583;28;20359;-44
2022/04/18 09:42:50;;;;;;;;;;;10.80;86.00;;;;;;5113995;28;19990;-45
2022/04/18 09:45:16;;;;;;;;;;;11.00;86.00;;;;;;5113973;28;19915;-45
2022/04/18 09:47:41;;;;;;;;;;;11.00;85.10;;;;;;5113648;28;19908;-45
2022/04/18 09:53:04;;;;;;;;;;;10.90;85.10;;;;;;5113753;28;19923;-46
2022/04/18 09:55:30;;;;;;;;;;;11.50;84.00;;;;;;5113771;28;19908;-48
2022/04/18 09:58:02;;;;;;;;;;;11.50;84.10;;;;;;5113820;28;19908;-48
2022/04/18 10:00:28;;;;;;;;;;;11.60;83.90;;;;;;5095497;28;19908;-47
2022/04/18 10:02:53;;;;;;;;;;;11.60;84.30;;;;;;5113705;28;20306;-47
2022/04/18 10:05:19;;;;;;;;;;;11.90;84.40;;;;;;5113399;28;19908;-45
2022/04/18 10:07:47;;;;;;;;;;;11.50;87.00;;;;;;5113306;28;19917;-44
2022/04/18 10:10:13;;;;;;;;;;;11.20;87.30;;;;;;5117148;28;20350;-47
2022/04/18 10:12:38;;;;;;;;;;;11.30;87.60;;;;;;5117391;28;19959;-44
2022/04/18 10:15:04;;;;;;;;;;;11.30;87.60;;;;;;5117830;28;20219;-49
2022/04/18 10:17:31;;;;;;;;;;;11.50;85.00;;;;;;5117840;28;19915;-47
2022/04/18 10:20:03;;;;;;;;;;;11.60;84.00;;;;;;5099209;28;20381;-48
2022/04/18 10:22:49;;;;;;;;;;;11.30;85.30;;;;;;5117932;28;19912;-51
2022/04/18 10:25:50;;;;;;;;;;;11.40;85.10;;;;;;5117585;28;19908;-47
2022/04/18 10:28:17;;;;;;;;;;;11.50;85.00;;;;;;5074514;28;19908;-50
2022/04/18 10:30:47;;;;;;;;;;;11.80;83.50;;;;;;5108790;28;19920;-49
2022/04/18 10:33:14;;;;;;;;;;;11.80;83.20;;;;;;5117498;28;19920;-48
2022/04/18 10:35:59;;;;;;;;;;;11.30;83.80;;;;;;5117657;28;19912;-48
2022/04/18 10:38:25;;;;;;;;;;;11.00;83.70;;;;;;5099229;28;20266;-46
2022/04/18 10:40:51;;;;;;;;;;;11.20;84.90;;;;;;5116855;28;20007;-47
2022/04/18 10:43:55;;;;;;;;;;;11.50;84.70;;;;;;5116872;28;19908;-46
2022/04/18 10:46:21;;;;;;;;;;;11.90;84.20;;;;;;5116771;28;19970;-46
2022/04/18 10:48:57;;;;;;;;;;;12.20;83.20;;;;;;5116928;28;19908;-46
2022/04/18 10:51:27;;;;;;;;;;;12.30;81.60;;;;;;5098702;28;19914;-49
2022/04/18 10:54:03;;;;;;;;;;;12.10;82.30;;;;;;5116748;28;20366;-46
2022/04/18 10:56:44;;;;;;;;;;;12.30;82.10;;;;;;5098802;28;19908;-46
2022/04/18 10:59:11;;;;;;;;;;;12.60;82.10;;;;;;5117027;28;19915;-47
2022/04/18 11:01:39;;;;;;;;;;;12.30;81.40;;;;;;5116592;28;20277;-46
2022/04/18 11:04:08;;;;;;;;;;;12.30;81.20;;;;;;5116817;28;19918;-45
2022/04/18 11:06:37;;;;;;;;;;;12.40;81.90;;;;;;5116864;28;20006;-44
2022/04/18 11:09:08;;;;;;;;;;;12.40;81.30;;;;;;5116508;28;20411;-45
2022/04/18 11:11:37;;;;;;;;;;;12.10;81.50;;;;;;5098287;28;20346;-47
2022/04/18 11:14:21;;;;;;;;;;;12.30;81.00;;;;;;5116147;28;19908;-45
2022/04/18 11:16:47;;;;;;;;;;;12.40;80.80;;;;;;5116642;28;19912;-45
2022/04/18 11:19:16;;;;;;;;;;;12.50;79.50;;;;;;5116317;28;20310;-47
2022/04/18 11:22:00;;;;;;;;;;;12.20;80.30;;;;;;5115881;28;20015;-47
2022/04/18 11:24:46;;;;;;;;;;;12.40;80.20;;;;;;5098188;28;19908;-47
2022/04/18 11:27:11;;;;;;;;;;;12.40;79.60;;;;;;5097810;28;19908;-46
2022/04/18 11:29:37;;;;;;;;;;;12.30;80.50;;;;;;5115938;28;20266;-47
2022/04/18 11:32:03;;;;;;;;;;;12.60;79.90;;;;;;5115808;28;20366;-47
2022/04/18 11:34:30;;;;;;;;;;;12.50;78.80;;;;;;5115852;28;19953;-47
2022/04/18 11:36:57;;;;;;;;;;;12.00;79.10;;;;;;5115882;28;20258;-46
2022/04/18 11:39:22;;;;;;;;;;;12.10;79.60;;;;;;5116233;28;19908;-46
2022/04/18 11:41:48;;;;;;;;;;;12.60;78.50;;;;;;5116100;28;19908;-46
2022/04/18 11:44:20;;;;;;;;;;;12.50;77.30;;;;;;5097801;28;19908;-47
2022/04/18 11:46:46;;;;;;;;;;;12.60;77.50;;;;;;5115614;28;19912;-46
2022/04/18 11:49:12;;;;;;;;;;;12.80;77.80;;;;;;5097840;28;19994;-44
2022/04/18 11:51:41;;;;;;;;;;;13.00;78.70;;;;;;5115977;28;20014;-48
2022/04/18 11:54:06;;;;;;;;;;;12.30;77.80;;;;;;5115652;28;19943;-46
2022/04/18 11:56:32;;;;;;;;;;;12.50;78.40;;;;;;5115721;28;19956;-46
2022/04/18 11:59:02;;;;;;;;;;;12.60;77.70;;;;;;5115691;28;20258;-45
2022/04/18 12:06:56;;;;;;;;;;;13.10;77.00;;;;;;5115151;28;19915;-48
2022/04/18 12:09:22;;;;;;;;;;;13.20;76.30;;;;;;5115304;28;19908;-49
2022/04/18 12:11:48;;;;;;;;;;;13.00;76.20;;;;;;5115172;28;19923;-49
2022/04/18 12:14:14;;;;;;;;;;;13.00;75.60;;;;;;5096991;28;19907;-46
2022/04/18 12:16:41;;;;;;;;;;;12.90;74.90;;;;;;5115246;28;19908;-48
2022/04/18 12:19:11;;;;;;;;;;;12.90;75.50;;;;;;5114985;28;19915;-46
2022/04/18 12:21:37;;;;;;;;;;;12.80;75.20;;;;;;5115290;28;19914;-45
2022/04/18 12:24:03;;;;;;;;;;;13.10;73.70;;;;;;5115005;28;20274;-47
2022/04/18 12:26:29;;;;;;;;;;;13.00;71.80;;;;;;5115096;28;19907;-47
2022/04/18 12:28:58;;;;;;;;;;;13.10;72.10;;;;;;5115157;28;19915;-46
2022/04/18 12:31:24;;;;;;;;;;;13.20;72.20;;;;;;5096349;28;19968;-47
2022/04/18 12:33:50;;;;;;;;;;;13.50;72.50;;;;;;5114754;28;19934;-45
2022/04/18 12:36:23;;;;;;;;;;;13.60;70.30;;;;;;5114994;28;19992;-45
2022/04/18 12:38:49;;;;;;;;;;;13.60;69.80;;;;;;5115092;28;19908;-48
2022/04/18 12:41:15;;;;;;;;;;;13.60;69.40;;;;;;5114764;28;19943;-47
2022/04/18 12:43:40;;;;;;;;;;;13.60;68.90;;;;;;5114863;28;19907;-46
2022/04/18 12:46:10;;;;;;;;;;;13.60;69.40;;;;;;5114189;28;19915;-46
2022/04/18 12:48:37;;;;;;;;;;;13.50;67.30;;;;;;5114298;28;20033;-46
2022/04/18 12:51:03;;;;;;;;;;;13.30;67.70;;;;;;5114711;28;19908;-45
2022/04/18 12:53:47;;;;;;;;;;;13.30;67.20;;;;;;5114692;28;19938;-47
2022/04/18 12:56:14;;;;;;;;;;;13.40;66.10;;;;;;5114295;28;20335;-45
2022/04/18 12:58:40;;;;;;;;;;;13.60;66.40;;;;;;5114067;28;19990;-47
2022/04/18 13:01:06;;;;;;;;;;;13.30;66.60;;;;;;5114331;28;19933;-45
2022/04/18 13:03:42;;;;;;;;;;;13.10;67.40;;;;;;5114424;28;19907;-47
2022/04/18 13:06:07;;;;;;;;;;;13.10;66.60;;;;;;5130128;27;19908;-48
2022/04/18 13:08:36;;;;;;;;;;;12.90;66.20;;;;;;5114258;28;19960;-48
2022/04/18 13:11:01;;;;;;;;;;;13.30;66.20;;;;;;5114267;28;20270;-46
2022/04/18 13:13:27;;;;;;;;;;;13.30;66.10;;;;;;5114000;28;19912;-46
2022/04/18 13:15:52;;;;;;;;;;;13.50;66.00;;;;;;5114378;28;19911;-49
2022/04/18 13:18:21;;;;;;;;;;;13.70;65.90;;;;;;5113910;28;19933;-47
2022/04/18 13:20:47;;;;;;;;;;;13.60;65.50;;;;;;5114263;28;20014;-45
2022/04/18 13:23:13;;;;;;;;;;;13.40;66.00;;;;;;5113936;28;19915;-46
2022/04/18 13:25:41;;;;;;;;;;;13.70;65.90;;;;;;5114251;28;19908;-46
2022/04/18 13:28:09;;;;;;;;;;;13.60;66.10;;;;;;5129634;27;19907;-45
2022/04/18 13:30:36;;;;;;;;;;;13.50;66.10;;;;;;5113737;28;19915;-51
2022/04/18 13:33:02;;;;;;;;;;;13.20;65.10;;;;;;5113622;28;19919;-46
2022/04/18 13:35:28;;;;;;;;;;;12.90;65.50;;;;;;5113957;28;20412;-47
2022/04/18 13:37:54;;;;;;;;;;;12.90;65.30;;;;;;5095297;28;19958;-48
2022/04/18 13:40:20;;;;;;;;;;;12.80;66.10;;;;;;5113902;28;20072;-47
2022/04/18 13:42:46;;;;;;;;;;;13.20;66.70;;;;;;5113417;28;19916;-47
2022/04/18 13:45:12;;;;;;;;;;;13.00;67.90;;;;;;5113562;28;19908;-48
2022/04/18 13:47:41;;;;;;;;;;;13.20;66.60;;;;;;5113812;28;19907;-45
2022/04/18 13:50:08;;;;;;;;;;;13.00;67.50;;;;;;5114043;28;19907;-45
2022/04/18 13:52:33;;;;;;;;;;;13.20;68.30;;;;;;5114174;28;19965;-50
2022/04/18 13:54:59;;;;;;;;;;;13.00;67.80;;;;;;5113678;28;19915;-47
2022/04/18 13:57:24;;;;;;;;;;;13.10;69.30;;;;;;5113649;28;19947;-46
2022/04/18 13:59:50;;;;;;;;;;;13.30;67.70;;;;;;5113687;28;19991;-49
2022/04/18 14:02:16;;;;;;;;;;;13.50;67.20;;;;;;5113478;28;19936;-49
2022/04/18 14:04:41;;;;;;;;;;;13.70;67.40;;;;;;5114113;28;19907;-46
2022/04/18 14:07:07;;;;;;;;;;;13.70;67.00;;;;;;5095246;28;20006;-47
2022/04/18 14:09:32;;;;;;;;;;;13.60;67.20;;;;;;5113175;28;19908;-46
2022/04/18 14:11:58;;;;;;;;;;;13.80;66.60;;;;;;5113428;28;19912;-46
2022/04/18 14:22:36;;;;;;;;;;;14.10;66.80;;;;;;5113753;28;19919;-45
2022/04/18 14:25:02;;;;;;;;;;;13.60;68.30;;;;;;5113540;28;19908;-45
2022/04/18 14:27:27;;;;;;;;;;;13.70;68.80;;;;;;5113056;28;19908;-48
2022/04/18 14:29:54;;;;;;;;;;;13.80;69.20;;;;;;5113478;28;19915;-46
2022/04/18 14:32:20;;;;;;;;;;;13.70;71.90;;;;;;5113759;28;20013;-47
2022/04/18 14:34:46;;;;;;;;;;;13.50;73.00;;;;;;5113557;28;19908;-46
2022/04/18 14:37:11;;;;;;;;;;;13.40;72.80;;;;;;5112858;28;20026;-46
2022/04/18 14:39:37;;;;;;;;;;;13.50;71.50;;;;;;5113543;28;19908;-49
2022/04/18 14:42:02;;;;;;;;;;;13.60;70.60;;;;;;5113235;28;19916;-47
2022/04/18 14:44:28;;;;;;;;;;;13.70;70.60;;;;;;5113471;28;19911;-50
2022/04/18 14:46:53;;;;;;;;;;;13.50;73.40;;;;;;5113229;28;19911;-45
2022/04/18 14:49:19;;;;;;;;;;;13.50;73.80;;;;;;5113430;28;20269;-48
2022/04/18 14:51:44;;;;;;;;;;;13.10;74.80;;;;;;5113345;28;20453;-46
2022/04/18 14:54:10;;;;;;;;;;;13.00;75.10;;;;;;5113175;28;19908;-46